createdAt,value
2022-08-07T00:02:36.787Z,3.35
2022-08-07T00:05:04.144Z,4.13
2022-08-07T00:07:40.562Z,3.78
2022-08-07T00:10:27.281Z,3.90
2022-08-07T00:13:01.209Z,4.03
2022-08-07T00:15:38.562Z,4.20
2022-08-07T00:18:24.946Z,4.43
2022-08-07T00:20:54.955Z,3.45
2022-08-07T00:23:24.677Z,3.58
2022-08-07T00:25:59.309Z,3.53
2022-08-07T00:31:04.443Z,3.92
2022-08-07T00:33:35.689Z,4.28
2022-08-07T00:36:03.784Z,4.30
2022-08-07T00:38:33.233Z,3.38
2022-08-07T00:41:01.577Z,3.15
2022-08-07T00:43:59.080Z,3.03
2022-08-07T00:46:16.104Z,3.40
2022-08-07T00:48:43.319Z,3.00
2022-08-07T00:51:11.080Z,3.20
2022-08-07T00:53:39.316Z,2.72
2022-08-07T00:56:18.991Z,3.28
2022-08-07T00:58:47.081Z,2.85
2022-08-07T01:01:18.797Z,3.58
2022-08-07T01:03:56.283Z,3.28
2022-08-07T01:06:30.363Z,2.97
2022-08-07T01:09:00.999Z,3.00
2022-08-07T01:12:27.804Z,3.50
2022-08-07T01:14:28.440Z,3.20
2022-08-07T01:16:57.867Z,3.42
2022-08-07T01:19:32.651Z,3.22
2022-08-07T01:22:03.203Z,3.08
2022-08-07T01:24:37.077Z,3.92
2022-08-07T01:27:06.055Z,3.13
2022-08-07T01:29:47.970Z,3.60
2022-08-07T01:32:22.289Z,3.17
2022-08-07T01:34:51.729Z,3.03
2022-08-07T01:37:19.295Z,3.03
2022-08-07T01:39:49.532Z,3.28
2022-08-07T01:42:57.409Z,3.72
2022-08-07T01:45:37.121Z,3.42
2022-08-07T01:48:29.273Z,3.30
2022-08-07T01:51:08.183Z,3.22
2022-08-07T01:54:09.169Z,3.20
2022-08-07T01:56:53.064Z,3.50
2022-08-07T01:59:31.164Z,3.83
2022-08-07T02:02:10.459Z,2.67
2022-08-07T02:04:55.982Z,3.15
2022-08-07T02:07:44.832Z,2.60
2022-08-07T02:10:25.555Z,2.70
2022-08-07T02:12:56.831Z,3.42
2022-08-07T02:15:34.006Z,3.08
2022-08-07T02:18:03.954Z,3.53
2022-08-07T02:20:33.603Z,3.42
2022-08-07T02:23:06.133Z,3.30
2022-08-07T02:26:31.379Z,3.10
2022-08-07T02:28:28.858Z,3.13
2022-08-07T02:31:18.735Z,2.80
2022-08-07T02:34:01.828Z,3.40
2022-08-07T02:36:38.184Z,3.38
2022-08-07T02:39:17.055Z,3.40
2022-08-07T02:42:03.733Z,3.03
2022-08-07T02:44:47.938Z,3.17
2022-08-07T02:47:19.819Z,2.85
2022-08-07T02:49:57.692Z,2.90
2022-08-07T02:53:12.259Z,2.67
2022-08-07T02:56:03.220Z,3.10
2022-08-07T02:58:35.067Z,3.17
2022-08-07T03:01:06.075Z,2.63
2022-08-07T03:03:50.632Z,2.78
2022-08-07T03:06:34.716Z,2.20
2022-08-07T03:09:04.865Z,2.80
2022-08-07T03:11:39.039Z,2.90
2022-08-07T03:14:22.454Z,2.28
2022-08-07T03:16:52.844Z,2.90
2022-08-07T03:19:21.296Z,2.67
2022-08-07T03:21:52.631Z,2.38
2022-08-07T03:27:01.093Z,2.25
2022-08-07T03:29:49.371Z,3.08
2022-08-07T03:32:24.750Z,3.00
2022-08-07T03:35:16.758Z,2.88
2022-08-07T03:37:53.806Z,2.55
2022-08-07T03:40:27.548Z,2.55
2022-08-07T03:43:04.623Z,2.58
2022-08-07T03:45:43.374Z,2.80
2022-08-07T03:48:14.336Z,2.10
2022-08-07T03:50:43.272Z,2.55
2022-08-07T03:53:19.927Z,2.78
2022-08-07T03:56:10.481Z,2.35
2022-08-07T03:59:08.457Z,2.20
2022-08-07T04:01:30.249Z,2.60
2022-08-07T04:04:00.224Z,3.08
2022-08-07T04:06:36.388Z,3.13
2022-08-07T04:09:15.282Z,2.90
2022-08-07T04:12:27.318Z,2.20
2022-08-07T04:14:38.610Z,2.47
2022-08-07T04:17:20.376Z,2.28
2022-08-07T04:20:02.269Z,2.17
2022-08-07T04:22:33.486Z,2.78
2022-08-07T04:25:08.862Z,2.67
2022-08-07T04:27:44.272Z,2.88
2022-08-07T04:30:35.617Z,2.38
2022-08-07T04:33:19.900Z,2.70
2022-08-07T04:35:53.984Z,2.50
2022-08-07T04:38:26.671Z,2.40
2022-08-07T04:40:56.590Z,2.40
2022-08-07T04:44:12.292Z,3.08
2022-08-07T04:47:04.675Z,1.95
2022-08-07T04:49:40.172Z,2.75
2022-08-07T04:52:21.456Z,2.63
2022-08-07T04:55:34.976Z,2.40
2022-08-07T04:58:42.418Z,2.88
2022-08-07T05:01:18.056Z,2.58
2022-08-07T05:04:08.597Z,2.30
2022-08-07T05:06:56.364Z,2.50
2022-08-07T05:09:52.023Z,2.13
2022-08-07T05:12:30.299Z,2.55
2022-08-07T05:15:23.554Z,2.95
2022-08-07T05:18:08.700Z,2.30
2022-08-07T05:20:42.818Z,2.60
2022-08-07T05:23:16.510Z,2.58
2022-08-07T05:26:11.084Z,2.65
2022-08-07T05:28:37.162Z,2.10
2022-08-07T05:31:12.674Z,2.35
2022-08-07T05:33:51.182Z,2.80
2022-08-07T05:36:30.315Z,2.28
2022-08-07T05:40:07.140Z,2.75
2022-08-07T05:42:01.433Z,2.47
2022-08-07T05:44:35.409Z,2.88
2022-08-07T05:47:18.225Z,2.85
2022-08-07T05:49:52.242Z,2.50
2022-08-07T05:52:32.413Z,2.63
2022-08-07T05:55:10.367Z,2.28
2022-08-07T05:57:42.973Z,2.85
2022-08-07T06:00:16.636Z,2.83
2022-08-07T06:02:53.181Z,2.33
2022-08-07T06:05:28.293Z,2.88
2022-08-07T06:08:09.163Z,2.63
2022-08-07T06:10:44.776Z,3.17
2022-08-07T06:13:13.680Z,2.72
2022-08-07T06:15:44.444Z,2.50
2022-08-07T06:18:21.579Z,2.75
2022-08-07T06:22:15.727Z,2.67
2022-08-07T06:24:38.365Z,3.17
2022-08-07T06:26:27.906Z,2.55
2022-08-07T06:29:01.005Z,3.22
2022-08-07T06:31:47.345Z,4.18
2022-08-07T06:34:19.666Z,4.18
2022-08-07T06:36:52.116Z,4.40
2022-08-07T06:40:13.411Z,3.55
2022-08-07T06:42:19.528Z,4.95
2022-08-07T06:45:24.985Z,4.30
2022-08-07T06:47:58.903Z,4.25
2022-08-07T06:50:47.913Z,4.35
2022-08-07T06:54:12.131Z,4.68
2022-08-07T06:56:16.098Z,4.05
2022-08-07T07:00:14.717Z,4.00
2022-08-07T07:01:42.093Z,4.80
2022-08-07T07:04:28.310Z,5.07
2022-08-07T07:07:10.514Z,4.15
2022-08-07T07:09:51.000Z,4.40
2022-08-07T07:12:48.449Z,4.85
2022-08-07T07:15:32.362Z,4.32
2022-08-07T07:18:47.428Z,4.63
2022-08-07T07:21:27.204Z,4.70
2022-08-07T07:24:12.962Z,3.92
2022-08-07T07:26:51.874Z,4.13
2022-08-07T07:29:56.989Z,3.67
2022-08-07T07:32:16.735Z,4.47
2022-08-07T07:34:49.596Z,4.20
2022-08-07T07:37:44.333Z,4.32
2022-08-07T07:40:10.159Z,4.70
2022-08-07T07:42:51.402Z,4.60
2022-08-07T07:46:38.154Z,3.65
2022-08-07T07:48:35.429Z,4.00
2022-08-07T07:51:07.846Z,3.80
2022-08-07T07:53:52.710Z,4.43
2022-08-07T07:56:30.472Z,4.65
2022-08-07T07:59:04.252Z,4.60
2022-08-07T08:02:02.742Z,5.25
2022-08-07T08:04:25.715Z,4.93
2022-08-07T08:06:56.241Z,4.57
2022-08-07T08:09:29.460Z,5.00
2022-08-07T08:12:03.102Z,4.30
2022-08-07T08:14:34.475Z,4.22
2022-08-07T08:17:55.385Z,4.57
2022-08-07T08:20:17.914Z,4.63
2022-08-07T08:23:09.489Z,4.15
2022-08-07T08:25:58.110Z,4.57
2022-08-07T08:28:38.525Z,4.07
2022-08-07T08:31:15.645Z,4.75
2022-08-07T08:33:49.579Z,4.18
2022-08-07T08:36:25.601Z,4.30
2022-08-07T08:39:00.087Z,4.65
2022-08-07T08:41:58.682Z,4.38
2022-08-07T08:44:31.427Z,4.05
2022-08-07T08:47:25.100Z,3.47
2022-08-07T08:50:04.813Z,4.35
2022-08-07T08:52:40.852Z,4.45
2022-08-07T08:55:54.848Z,5.60
2022-08-07T08:58:50.537Z,5.15
2022-08-07T09:01:49.438Z,5.28
2022-08-07T09:04:37.006Z,5.20
2022-08-07T09:07:16.470Z,5.15
2022-08-07T09:10:00.093Z,4.40
2022-08-07T09:12:53.735Z,4.18
2022-08-07T09:16:23.615Z,4.78
2022-08-07T09:18:41.609Z,6.15
2022-08-07T09:22:09.863Z,4.53
2022-08-07T09:25:01.600Z,4.18
2022-08-07T09:28:06.211Z,5.65
2022-08-07T09:31:22.874Z,5.57
2022-08-07T09:34:17.497Z,6.07
2022-08-07T09:36:59.880Z,6.13
2022-08-07T09:42:51.371Z,4.72
2022-08-07T09:47:24.371Z,4.93
2022-08-07T09:48:56.033Z,4.50
2022-08-07T09:52:10.451Z,4.45
2022-08-07T09:57:24.668Z,3.70
2022-08-07T10:00:08.992Z,5.00
2022-08-07T10:04:05.922Z,4.80
2022-08-07T10:06:48.907Z,4.55
2022-08-07T10:09:42.904Z,3.60
2022-08-07T10:12:39.712Z,4.05
2022-08-07T10:15:26.154Z,4.45
2022-08-07T10:18:37.140Z,4.00
2022-08-07T10:21:50.838Z,4.00
2022-08-07T10:24:25.504Z,3.58
2022-08-07T10:27:30.181Z,2.97
2022-08-07T10:30:27.473Z,3.60
2022-08-07T10:34:05.140Z,4.03
2022-08-07T10:36:40.664Z,3.03
2022-08-07T10:39:13.598Z,3.20
2022-08-07T10:42:00.265Z,3.30
2022-08-07T10:44:51.328Z,3.60
2022-08-07T10:47:53.339Z,5.57
2022-08-07T10:50:38.269Z,5.35
2022-08-07T10:53:09.082Z,4.35
2022-08-07T10:55:45.466Z,4.32
2022-08-07T10:58:46.132Z,3.85
2022-08-07T11:01:22.344Z,4.53
2022-08-07T11:04:31.900Z,3.97
2022-08-07T11:07:15.182Z,5.20
2022-08-07T11:10:08.533Z,4.10
2022-08-07T11:13:01.788Z,4.97
2022-08-07T11:15:36.588Z,3.90
2022-08-07T11:18:27.542Z,3.50
2022-08-07T11:21:10.442Z,3.22
2022-08-07T11:23:53.552Z,3.50
2022-08-07T11:26:50.350Z,4.28
2022-08-07T11:29:47.293Z,4.22
2022-08-07T11:32:29.169Z,4.63
2022-08-07T11:35:02.786Z,4.32
2022-08-07T11:37:38.488Z,3.35
2022-08-07T11:40:49.518Z,4.30
2022-08-07T11:43:29.771Z,3.85
2022-08-07T11:46:36.672Z,3.50
2022-08-07T11:50:18.590Z,3.75
2022-08-07T11:52:35.626Z,3.60
2022-08-07T11:56:09.554Z,3.85
2022-08-07T11:58:53.913Z,3.97
2022-08-07T12:01:59.355Z,3.33
2022-08-07T12:04:51.490Z,3.58
2022-08-07T12:07:27.659Z,4.03
2022-08-07T12:10:32.443Z,3.60
2022-08-07T12:13:11.592Z,2.80
2022-08-07T12:16:07.010Z,3.53
2022-08-07T12:18:57.665Z,2.58
2022-08-07T12:22:37.822Z,3.10
2022-08-07T12:26:22.337Z,2.55
2022-08-07T12:28:23.997Z,2.75
2022-08-07T12:31:06.662Z,3.13
2022-08-07T12:34:01.196Z,2.20
2022-08-07T12:36:32.815Z,2.22
2022-08-07T12:39:09.512Z,3.33
2022-08-07T12:41:54.644Z,2.78
2022-08-07T12:44:24.467Z,2.83
2022-08-07T12:47:07.023Z,3.20
2022-08-07T12:49:56.707Z,3.05
2022-08-07T12:52:34.923Z,2.70
2022-08-07T12:55:17.897Z,4.22
2022-08-07T12:58:01.445Z,3.15
2022-08-07T13:00:50.337Z,3.65
2022-08-07T13:03:54.735Z,3.83
2022-08-07T13:06:54.455Z,2.72
2022-08-07T13:10:39.743Z,2.42
2022-08-07T13:13:47.994Z,2.45
2022-08-07T13:16:33.067Z,2.28
2022-08-07T13:19:35.246Z,3.03
2022-08-07T13:22:31.391Z,2.53
2022-08-07T13:25:10.272Z,2.20
2022-08-07T13:28:12.864Z,2.50
2022-08-07T13:30:53.226Z,3.10
2022-08-07T13:34:34.324Z,2.70
2022-08-07T13:37:25.645Z,2.50
2022-08-07T13:40:42.079Z,2.33
2022-08-07T13:43:15.401Z,2.03
2022-08-07T13:46:10.993Z,2.75
2022-08-07T13:48:52.031Z,2.95
2022-08-07T13:52:19.028Z,2.47
2022-08-07T13:54:33.527Z,2.42
2022-08-07T13:57:03.798Z,2.67
2022-08-07T13:59:33.546Z,2.38
2022-08-07T14:02:08.680Z,2.08
2022-08-07T14:04:54.600Z,2.15
2022-08-07T14:07:27.465Z,2.10
2022-08-07T14:10:02.333Z,2.20
2022-08-07T14:12:41.888Z,1.45
2022-08-07T14:15:19.297Z,1.55
2022-08-07T14:18:23.446Z,1.60
2022-08-07T14:20:48.855Z,1.58
2022-08-07T14:24:01.328Z,1.67
2022-08-07T14:26:37.417Z,1.70
2022-08-07T14:30:07.314Z,1.63
2022-08-07T14:32:01.330Z,1.40
2022-08-07T14:34:33.426Z,1.73
2022-08-07T14:40:17.300Z,1.58
2022-08-07T14:45:21.835Z,1.58
2022-08-07T14:47:58.610Z,1.70
2022-08-07T14:50:31.571Z,2.00
2022-08-07T14:53:08.154Z,1.90
2022-08-07T14:55:55.374Z,1.42
2022-08-07T14:58:28.051Z,2.30
2022-08-07T15:00:59.256Z,2.08
2022-08-07T15:03:51.388Z,1.42
2022-08-07T15:06:25.500Z,1.60
2022-08-07T15:14:57.814Z,1.92
2022-08-07T15:17:32.498Z,1.70
2022-08-07T15:20:33.021Z,1.60
2022-08-07T15:26:01.440Z,2.00
2022-08-07T15:28:34.389Z,1.13
2022-08-07T15:31:06.422Z,1.33
2022-08-07T15:37:02.420Z,1.25
2022-08-07T15:39:13.303Z,1.35
2022-08-07T15:44:52.207Z,1.30
2022-08-07T15:48:00.108Z,1.23
2022-08-07T15:50:37.899Z,1.30
2022-08-07T15:53:17.177Z,0.95
2022-08-07T15:56:02.125Z,1.42
2022-08-07T15:58:55.202Z,0.88
2022-08-07T16:01:39.749Z,1.20
2022-08-07T16:04:15.567Z,1.08
2022-08-07T16:06:51.971Z,4.65
2022-08-07T16:09:42.073Z,2.70
2022-08-07T16:12:40.513Z,1.35
2022-08-07T16:15:55.146Z,1.20
2022-08-07T16:18:49.744Z,1.45
2022-08-07T16:22:04.094Z,1.00
2022-08-07T16:24:55.048Z,0.90
2022-08-07T16:27:39.967Z,1.17
2022-08-07T16:30:30.198Z,1.35
2022-08-07T16:34:02.105Z,1.08
2022-08-07T16:36:20.150Z,1.05
2022-08-07T16:39:10.194Z,1.38
2022-08-07T16:41:48.810Z,1.77
2022-08-07T16:44:55.489Z,0.90
2022-08-07T16:47:51.548Z,0.90
2022-08-07T16:50:52.546Z,1.02
2022-08-07T16:53:48.204Z,0.85
2022-08-07T16:56:25.643Z,1.50
2022-08-07T16:59:17.924Z,0.80
2022-08-07T17:02:12.552Z,1.23
2022-08-07T17:06:28.268Z,0.90
2022-08-07T17:09:04.314Z,0.90
2022-08-07T17:12:04.161Z,1.02
2022-08-07T17:14:37.502Z,1.00
2022-08-07T17:17:18.428Z,0.73
2022-08-07T17:20:00.983Z,0.80
2022-08-07T17:22:45.881Z,0.90
2022-08-07T17:30:26.577Z,0.68
2022-08-07T17:34:15.429Z,0.80
2022-08-07T17:36:32.475Z,0.95
2022-08-07T17:39:58.221Z,1.00
2022-08-07T17:42:59.459Z,0.75
2022-08-07T17:45:40.940Z,0.90
2022-08-07T17:48:31.019Z,0.98
2022-08-07T17:52:00.961Z,2.40
2022-08-07T17:54:54.121Z,2.75
2022-08-07T17:57:58.342Z,1.92
2022-08-07T18:00:34.442Z,0.80
2022-08-07T18:03:17.896Z,0.95
2022-08-07T18:06:16.349Z,0.80
2022-08-07T18:09:02.218Z,1.10
2022-08-07T18:12:16.481Z,0.98
2022-08-07T18:15:09.679Z,0.60
2022-08-07T18:18:45.241Z,0.70
2022-08-07T18:21:10.555Z,1.10
2022-08-07T18:24:00.506Z,0.82
2022-08-07T18:26:57.006Z,0.90
2022-08-07T18:30:07.864Z,0.85
2022-08-07T18:32:46.278Z,1.45
2022-08-07T18:35:25.749Z,1.00
2022-08-07T18:38:59.367Z,1.20
2022-08-07T18:41:20.645Z,1.35
2022-08-07T18:43:57.940Z,1.20
2022-08-07T18:46:47.474Z,1.10
2022-08-07T18:50:32.561Z,1.23
2022-08-07T18:52:53.885Z,1.40
2022-08-07T18:55:56.094Z,1.35
2022-08-07T18:58:54.110Z,1.52
2022-08-07T19:02:32.558Z,1.38
2022-08-07T19:04:57.473Z,1.45
2022-08-07T19:07:57.593Z,1.35
2022-08-07T19:10:51.992Z,1.00
2022-08-07T19:13:24.139Z,1.02
2022-08-07T19:16:04.249Z,1.40
2022-08-07T19:19:28.093Z,1.30
2022-08-07T19:22:47.547Z,0.82
2022-08-07T19:26:24.611Z,1.67
2022-08-07T19:28:58.488Z,1.45
2022-08-07T19:31:37.305Z,1.30
2022-08-07T19:34:08.148Z,1.30
2022-08-07T19:36:40.810Z,1.17
2022-08-07T19:39:10.277Z,1.23
2022-08-07T19:42:05.653Z,1.20
2022-08-07T19:44:41.174Z,0.98
2022-08-07T19:47:18.647Z,1.15
2022-08-07T19:49:58.249Z,1.15
2022-08-07T19:52:31.495Z,2.47
2022-08-07T19:55:02.917Z,1.30
2022-08-07T19:58:01.300Z,1.25
2022-08-07T20:00:35.782Z,1.40
2022-08-07T20:03:34.869Z,1.00
2022-08-07T20:06:02.541Z,1.55
2022-08-07T20:08:36.142Z,1.40
2022-08-07T20:11:12.153Z,1.58
2022-08-07T20:13:54.976Z,1.50
2022-08-07T20:16:35.844Z,1.48
2022-08-07T20:19:11.074Z,1.52
2022-08-07T20:21:59.411Z,1.98
2022-08-07T20:24:31.932Z,2.13
2022-08-07T20:27:02.595Z,2.22
2022-08-07T20:29:47.723Z,2.22
2022-08-07T20:32:39.627Z,2.17
2022-08-07T20:35:16.293Z,2.35
2022-08-07T20:37:58.409Z,1.98
2022-08-07T20:40:34.673Z,2.42
2022-08-07T20:43:14.884Z,1.92
2022-08-07T20:46:25.593Z,1.85
2022-08-07T20:48:58.202Z,2.03
2022-08-07T20:51:30.812Z,1.90
2022-08-07T20:54:12.103Z,1.35
2022-08-07T20:56:49.975Z,1.70
2022-08-07T21:00:05.226Z,1.70
2022-08-07T21:02:33.206Z,1.30
2022-08-07T21:05:04.693Z,1.38
2022-08-07T21:07:49.574Z,1.35
2022-08-07T21:10:29.502Z,1.42
2022-08-07T21:13:02.256Z,1.38
2022-08-07T21:15:58.553Z,1.50
2022-08-07T21:18:30.364Z,2.13
2022-08-07T21:21:04.183Z,1.58
2022-08-07T21:24:22.140Z,2.03
2022-08-07T21:27:26.539Z,2.00
2022-08-07T21:30:10.957Z,1.42
2022-08-07T21:33:12.492Z,1.60
2022-08-07T21:36:04.905Z,1.13
2022-08-07T21:38:58.033Z,1.45
2022-08-07T21:42:00.591Z,1.50
2022-08-07T21:44:54.532Z,1.45
2022-08-07T21:47:50.300Z,1.50
2022-08-07T21:50:25.939Z,1.60
2022-08-07T21:53:46.517Z,1.70
2022-08-07T21:56:47.946Z,1.98
2022-08-07T21:59:22.007Z,1.17
2022-08-07T22:02:13.069Z,1.50
2022-08-07T22:04:51.137Z,1.80
2022-08-07T22:07:58.753Z,1.40
2022-08-07T22:10:29.264Z,1.40
2022-08-07T22:13:09.272Z,1.42
2022-08-07T22:16:38.624Z,1.00
2022-08-07T22:19:27.048Z,1.30
2022-08-07T22:22:28.852Z,1.17
2022-08-07T22:25:08.386Z,1.30
2022-08-07T22:28:30.897Z,1.70
2022-08-07T22:31:45.201Z,1.73
2022-08-07T22:34:28.890Z,1.48
2022-08-07T22:37:02.296Z,1.63
2022-08-07T22:40:05.134Z,1.52
2022-08-07T22:42:40.025Z,1.45
2022-08-07T22:46:04.881Z,1.13
2022-08-07T22:48:55.740Z,1.35
2022-08-07T22:52:10.026Z,1.98
2022-08-07T22:58:03.224Z,1.38
2022-08-07T23:00:40.645Z,1.60
2022-08-07T23:03:23.811Z,1.45
2022-08-07T23:06:18.088Z,1.30
2022-08-07T23:08:58.465Z,2.00
2022-08-07T23:12:10.328Z,1.67
2022-08-07T23:16:04.410Z,1.60
2022-08-07T23:18:42.406Z,2.20
2022-08-07T23:21:36.653Z,1.80
2022-08-07T23:24:27.962Z,1.73
2022-08-07T23:27:14.423Z,2.00
2022-08-07T23:30:37.642Z,1.60
2022-08-07T23:34:22.882Z,1.75
2022-08-07T23:36:28.882Z,2.13
2022-08-07T23:39:22.226Z,2.08
2022-08-07T23:42:15.677Z,1.98
2022-08-07T23:44:52.219Z,1.90
2022-08-07T23:47:46.712Z,2.30
2022-08-07T23:50:54.482Z,2.30
2022-08-07T23:53:51.187Z,2.42
2022-08-07T23:56:34.916Z,2.13
